This is the latest recevied weather packets stored in our database for station/object WD4ITN. If no packets are shown the sender has not sent any weather packets the latest 1 day(s).
| Time | Temp. | Humidity | Pressure | Rain* | Wind** | Luminosity | Snow |
|---|---|---|---|---|---|---|---|
| 1778111303 | 16.11° C | 85% | 1010 hPa | 8.38 mm | - | - | - |
| 1778110997 | 16.67° C | 85% | 1009.8 hPa | 8.38 mm | - | - | - |
| 1778107996 | 17.78° C | 84% | 1009.4 hPa | 8.38 mm | - | - | - |
| 1778107700 | 17.78° C | 83% | 1009.4 hPa | 8.38 mm | - | - | - |
| 1778105907 | 18.33° C | 82% | 1008.9 hPa | 8.38 mm | - | - | - |
| 1778104711 | 18.33° C | 83% | 1008.8 hPa | 8.38 mm | - | - | - |
| 1778104413 | 18.33° C | 84% | 1008.8 hPa | 8.38 mm | - | - | - |
| 1778104116 | 18.33° C | 84% | 1008.8 hPa | 8.38 mm | - | - | - |
| 1778102305 | 18.33° C | 86% | 1008.6 hPa | 8.38 mm | - | - | - |
| 1778101111 | 18.33° C | 87% | 1008.4 hPa | 8.38 mm | - | - | - |
| 1778099898 | 17.78° C | 87% | 1008.3 hPa | 8.38 mm | - | - | - |
| 1778098407 | 18.33° C | 87% | 1008.1 hPa | 8.38 mm | - | - | - |
| 1778097217 | 18.33° C | 87% | 1008.2 hPa | 8.38 mm | - | - | - |
| 1778095399 | 17.22° C | 89% | 1008.4 hPa | 8.38 mm | - | - | - |
| 1778094800 | 17.22° C | 90% | 1008.3 hPa | 8.38 mm | - | - | - |
| 1778093300 | 16.67° C | 92% | 1008.4 hPa | 8.38 mm | - | - | - |
| 1778092998 | 16.67° C | 92% | 1008.3 hPa | 8.38 mm | - | - | - |
| 1778092718 | 16.67° C | 92% | 1008.4 hPa | 8.38 mm | - | - | - |
| 1778091803 | 16.11° C | 93% | 1008.3 hPa | 8.38 mm | - | - | - |
| 1778091500 | 16.11° C | 93% | 1008.4 hPa | 8.38 mm | - | - | - |
| 1778091204 | 16.11° C | 93% | 1008.3 hPa | 8.38 mm | - | - | - |
| 1778089402 | 16.11° C | 92% | 1008.5 hPa | 8.38 mm | - | - | - |
| 1778088811 | 16.11° C | 92% | 1008.4 hPa | 8.38 mm | - | - | - |
| 1778087597 | 15.56° C | 93% | 1008.6 hPa | 8.38 mm | - | - | - |
| 1778087317 | 15.56° C | 93% | 1008.8 hPa | 8.38 mm | - | - | - |
* Rain since midnight (hover to see other rain measurements)
** Current wind speed in m/s (hover to see current wind gust speed)